Etusivu
METAR-TAF:

METAR-TAF

Lentoasemat :

Ortonville Municipal Airport (Martinson Field)

Ortonville, Minnesota, Yhdysvallat

Leveyspiiri: 45-18-20N, Pituuspiiri: 096-25-28W, korkeus merenpinnasta: 335 m

Tämänhetkinen sää

Tämä raportti tehtiin 14 minuuttia sitten, kello 09.16 UTC
Tuuli 6 kn luoteesta
Lämpötila -17°C
Kosteus 71%
Ilmanpaine 1037 hPa
Näkyvyys: 16.1 km

METAR: KVVV 190916Z AUTO 31006KT 10SM M17/M21 A3061 RMK AO2

Aika: 03:30 (09:30 UTC)


TAF: puuttuu

Säähavainnot ja -ennusteet yli 4000 lentoasemalta (METAR- ja TAF-raportit).

Käytössä olevat sääasemat on merkitty karttaan keltaisilla ja punaisilla pisteillä.

Aseta hiiri pisteen päälle nähdäksesi sääaseman nimen.

Klikkaa sitten nähdäksesi säähavainnot ja -ennusteet.

Kartan vaihtaminen: klikkaa mustalla rastilla varustettuja vihreitä pisteitä, niin voit zoomata sisään; viivalla varustettua vihreää pistettä, niin voit zoomata ulos tai vihreitä nuolia, niin pääset viereisille kartoille.


METAR-TAF: